Aeroporto :
LOGIN :

Iscrizione | Disclaimer

   EN    FR    IT 

 










Sommario :    VFR   VFR Marginale   IFR   IFR Intensivo   IFR Molto Intensivo
Visibilità : 
Base nubi : 
>= 8 km
>= 3000ft
5 / 8 km
1000 / 3000 ft
1500m / 5 km
500 / 1000 ft
800 / 1500m
200 / 500 ft
< 800m
< 200 ft
Simboli :   Temporali  Nebbia  Neve Forte  Precipitazioni Forti  Vento > 20 kt
SIGMETs :   Varie  Temporali  Ghiacco  Turbolenza  Onda orograficha  Ceneri Vulcaniche






- Altitudine del aeroporto : 779 ft
- Codice IATA : CMF


LFLB - Chambery / Aix-Les-Bains

ULTIMO METAR :
  • 050830Z AUTO VRB03KT 9999 FEW033 BKN058 OVC068 04/02 Q1007 TEMPO 4000 RASN BKN009

METARs OBSOLETI :
  • 050800Z AUTO 16008KT 9999 FEW044 BKN058 OVC074 04/02 Q1007 TEMPO 3000 RASN BKN009
  • 050730Z AUTO 17007KT 9999 -DZ FEW036 BKN049 BKN056 04/02 Q1007 TEMPO 3000 RASN BKN009
  • 050700Z AUTO 17005KT 9999 FEW050 BKN062 OVC074 04/02 Q1007 TEMPO 3000 RASN BKN009
  • 050630Z AUTO 21006KT 180V240 9999 -RA FEW048 BKN056 OVC068 04/02 Q1007 TEMPO 3000 RASN BKN009
  • 050600Z AUTO 20008KT 9999 BKN062 OVC074 04/02 Q1007 NOSIG

TAF TAF LFLB
Valido dal 05 a 09 ore il 06 a 09 ore UTC


050800Z 0509/0609 20006KT 9999 SCT017 BKN045
TEMPO 0509/0609 RA BKN014
PROB40
TEMPO 0509/0514 4000 RASN BKN009
PROB40
TEMPO 0520/0602 4000 RASN BKN008
PROB30
TEMPO 0520/0602 2000 SN BKN003



MetMap, La meteo Aeronautica in un colpo d'occhio ! - Copyright ORBIFLY Dicembre 2007 - Disclaimer

ORBIFLY MET'MAP TEAM :

Programmazione e sviluppo : Alexandra Zaïnal
Concezione : Baudouin d'Aumeries
Aiuto per la programmazione : Marc-Olivier Méhu
Supporto tecnico e logistico : Manuel Goepfert
Aiuto per la traduzione : Arnaldo La Scala

Contatto : metmap@orbifly.com




FONTI E CREDITI :

   NOAA